createdAt,value
2023-02-23T00:02:07.307Z,100954.75
2023-02-23T00:04:38.440Z,100954.69
2023-02-23T00:07:06.751Z,100959.88
2023-02-23T00:09:36.936Z,100959.94
2023-02-23T00:12:09.597Z,100955.53
2023-02-23T00:14:38.360Z,100962.47
2023-02-23T00:17:14.051Z,100958.19
2023-02-23T00:19:43.501Z,100948.75
2023-02-23T00:22:10.625Z,100951.41
2023-02-23T00:24:38.847Z,100953.16
2023-02-23T00:27:06.799Z,100955.69
2023-02-23T00:29:39.497Z,100953.97
2023-02-23T00:32:06.595Z,100952.22
2023-02-23T00:34:37.852Z,100943.72
2023-02-23T00:37:08.609Z,100949.00
2023-02-23T00:39:35.378Z,100954.28
2023-02-23T00:42:03.779Z,100949.88
2023-02-23T00:44:33.862Z,100947.22
2023-02-23T00:47:01.507Z,100950.66
2023-02-23T00:49:28.359Z,100948.00
2023-02-23T00:51:55.066Z,100944.63
2023-02-23T00:54:22.682Z,100941.16
2023-02-23T00:56:50.507Z,100948.81
2023-02-23T00:59:17.915Z,100953.13
2023-02-23T01:01:44.999Z,100944.41
2023-02-23T01:04:13.128Z,100945.34
2023-02-23T01:06:41.539Z,100954.88
2023-02-23T01:09:27.971Z,100950.69
2023-02-23T01:11:57.111Z,100943.72
2023-02-23T01:14:24.491Z,100943.72
2023-02-23T01:16:51.391Z,100939.41
2023-02-23T01:19:18.076Z,100935.19
2023-02-23T01:21:45.068Z,100939.47
2023-02-23T01:24:13.314Z,100944.75
2023-02-23T01:26:44.613Z,100945.59
2023-02-23T01:29:17.967Z,100938.66
2023-02-23T01:31:52.926Z,100942.88
2023-02-23T01:34:21.829Z,100943.78
2023-02-23T01:36:49.475Z,100945.47
2023-02-23T01:39:21.078Z,100946.34
2023-02-23T01:41:48.410Z,100939.53
2023-02-23T01:44:15.111Z,100948.09
2023-02-23T01:46:45.517Z,100945.53
2023-02-23T01:49:20.796Z,100934.31
2023-02-23T01:51:55.602Z,100939.41
2023-02-23T01:54:31.108Z,100939.47
2023-02-23T01:57:01.557Z,100937.72
2023-02-23T01:59:39.629Z,100941.34
2023-02-23T02:02:07.617Z,100939.69
2023-02-23T02:04:44.722Z,100938.03
2023-02-23T02:07:23.290Z,100945.03
2023-02-23T02:10:13.437Z,100936.38
2023-02-23T02:12:51.989Z,100931.13
2023-02-23T02:15:22.486Z,100937.97
2023-02-23T02:18:18.528Z,100939.69
2023-02-23T02:21:42.552Z,100945.03
2023-02-23T02:24:41.118Z,100943.16
2023-02-23T02:27:21.386Z,100938.06
2023-02-23T02:30:26.934Z,100935.41
2023-02-23T02:33:01.989Z,100933.72
2023-02-23T02:36:08.421Z,100933.75
2023-02-23T02:38:53.807Z,100932.81
2023-02-23T02:41:53.590Z,100934.69
2023-02-23T02:45:07.657Z,100932.16
2023-02-23T02:47:44.227Z,100932.28
2023-02-23T02:50:21.982Z,100931.38
2023-02-23T02:52:58.326Z,100929.53
2023-02-23T02:55:34.361Z,100932.22
2023-02-23T02:58:07.917Z,100930.41
2023-02-23T03:01:01.647Z,100930.41
2023-02-23T03:03:47.406Z,100925.25
2023-02-23T03:06:33.657Z,100926.06
2023-02-23T03:09:59.542Z,100933.03
2023-02-23T03:12:52.512Z,100936.66
2023-02-23T03:15:53.502Z,100934.88
2023-02-23T03:18:55.687Z,100934.78
2023-02-23T03:21:55.304Z,100933.03
2023-02-23T03:24:55.758Z,100941.75
2023-02-23T03:27:44.126Z,100933.16
2023-02-23T03:30:42.127Z,100931.50
2023-02-23T03:34:08.504Z,100935.84
2023-02-23T03:36:58.818Z,100932.28
2023-02-23T03:39:59.603Z,100937.53
2023-02-23T03:42:51.510Z,100934.19
2023-02-23T03:45:42.305Z,100941.00
2023-02-23T03:48:31.166Z,100940.94
2023-02-23T03:51:24.102Z,100944.53
2023-02-23T03:54:27.478Z,100948.00
2023-02-23T03:57:15.753Z,100950.53
2023-02-23T04:00:12.568Z,100947.94
2023-02-23T04:03:07.184Z,100944.53
2023-02-23T04:05:56.758Z,100940.25
2023-02-23T04:08:49.718Z,100942.78
2023-02-23T04:11:48.824Z,100951.41
2023-02-23T04:14:54.461Z,100948.78
2023-02-23T04:17:25.647Z,100954.00
2023-02-23T04:19:54.274Z,100960.91
2023-02-23T04:22:23.362Z,100947.28
2023-02-23T04:24:50.787Z,100954.94
2023-02-23T04:27:18.493Z,100958.34
2023-02-23T04:29:45.250Z,100960.91
2023-02-23T04:32:18.700Z,100960.03
2023-02-23T04:34:46.225Z,100953.25
2023-02-23T04:37:14.009Z,100957.59
2023-02-23T04:39:42.801Z,100962.78
2023-02-23T04:42:10.179Z,100957.47
2023-02-23T04:44:37.012Z,100960.91
2023-02-23T04:47:04.264Z,100958.44
2023-02-23T04:49:31.091Z,100961.91
2023-02-23T04:51:57.987Z,100966.22
2023-02-23T04:54:24.813Z,100954.19
2023-02-23T04:56:51.709Z,100954.16
2023-02-23T04:59:19.100Z,100951.66
2023-02-23T05:01:45.851Z,100960.31
2023-02-23T05:04:12.596Z,100956.00
2023-02-23T05:06:39.421Z,100957.72
2023-02-23T05:09:07.000Z,100962.19
2023-02-23T05:11:34.058Z,100965.63
2023-02-23T05:14:00.879Z,100962.19
2023-02-23T05:16:28.022Z,100965.56
2023-02-23T05:19:03.886Z,100969.13
2023-02-23T05:21:30.938Z,100967.38
2023-02-23T05:24:00.632Z,100968.16
2023-02-23T05:26:27.487Z,100972.47
2023-02-23T05:28:57.078Z,100969.03
2023-02-23T05:31:24.958Z,100972.41
2023-02-23T05:33:52.237Z,100981.84
2023-02-23T05:36:21.832Z,100977.66
2023-02-23T05:38:49.651Z,100977.56
2023-02-23T05:41:21.727Z,100981.94
2023-02-23T05:43:52.764Z,100976.78
2023-02-23T05:46:26.703Z,100971.69
2023-02-23T05:49:00.237Z,100974.97
2023-02-23T05:51:32.842Z,100974.09
2023-02-23T05:54:00.168Z,100975.78
2023-02-23T05:56:27.679Z,100980.91
2023-02-23T05:59:00.244Z,100979.22
2023-02-23T06:01:27.833Z,100975.81
2023-02-23T06:03:54.904Z,100980.13
2023-02-23T06:06:23.701Z,100982.72
2023-02-23T06:08:56.886Z,100982.72
2023-02-23T06:11:23.778Z,100984.44
2023-02-23T06:13:50.732Z,100984.44
2023-02-23T06:16:17.645Z,100990.47
2023-02-23T06:18:44.508Z,101000.81
2023-02-23T06:21:11.291Z,100994.72
2023-02-23T06:23:38.192Z,100995.63
2023-02-23T06:26:05.368Z,100989.53
2023-02-23T06:28:32.356Z,100998.31
2023-02-23T06:30:59.345Z,101002.56
2023-02-23T06:33:26.668Z,101001.63
2023-02-23T06:35:54.668Z,101005.09
2023-02-23T06:38:22.130Z,101001.72
2023-02-23T06:40:48.809Z,101006.84
2023-02-23T06:43:15.603Z,101013.78
2023-02-23T06:45:42.338Z,101022.44
2023-02-23T06:48:09.112Z,101018.00
2023-02-23T06:50:35.994Z,101021.56
2023-02-23T06:53:02.941Z,101030.03
2023-02-23T06:55:29.774Z,101026.59
2023-02-23T06:57:56.522Z,101032.63
2023-02-23T07:00:23.699Z,101026.59
2023-02-23T07:02:50.410Z,101034.41
2023-02-23T07:05:17.367Z,101032.63
2023-02-23T07:07:45.428Z,101038.63
2023-02-23T07:10:12.268Z,101039.56
2023-02-23T07:12:39.104Z,101043.84
2023-02-23T07:15:06.793Z,101048.28
2023-02-23T07:17:33.539Z,101048.22
2023-02-23T07:20:00.327Z,101048.13
2023-02-23T07:22:30.189Z,101048.19
2023-02-23T07:24:57.895Z,101056.78
2023-02-23T07:27:25.219Z,101061.94
2023-02-23T07:29:51.988Z,101055.16
2023-02-23T07:32:18.979Z,101061.97
2023-02-23T07:34:48.472Z,101067.09
2023-02-23T07:37:15.500Z,101064.44
2023-02-23T07:39:42.269Z,101060.13
2023-02-23T07:42:09.044Z,101075.69
2023-02-23T07:44:36.607Z,101073.13
2023-02-23T07:47:03.647Z,101074.00
2023-02-23T07:49:31.314Z,101076.59
2023-02-23T07:51:58.010Z,101081.72
2023-02-23T07:54:26.002Z,101075.72
2023-02-23T07:56:53.196Z,101075.69
2023-02-23T07:59:20.080Z,101079.97
2023-02-23T08:01:46.935Z,101082.59
2023-02-23T08:04:13.804Z,101086.97
2023-02-23T08:06:40.490Z,101087.81
2023-02-23T08:09:07.745Z,101092.06
2023-02-23T08:11:34.876Z,101095.44
2023-02-23T08:14:01.737Z,101092.06
2023-02-23T08:16:30.803Z,101094.66
2023-02-23T08:18:58.589Z,101104.31
2023-02-23T08:21:26.467Z,101098.19
2023-02-23T08:23:53.654Z,101110.22
2023-02-23T08:26:20.341Z,101101.59
2023-02-23T08:28:47.139Z,101107.56
2023-02-23T08:31:16.312Z,101106.72
2023-02-23T08:33:43.235Z,101117.28
2023-02-23T08:36:10.212Z,101117.97
2023-02-23T08:38:36.973Z,101125.88
2023-02-23T08:41:05.691Z,101125.78
2023-02-23T08:43:32.733Z,101127.69
2023-02-23T08:45:59.546Z,101131.03
2023-02-23T08:48:26.479Z,101121.63
2023-02-23T08:50:57.205Z,101133.47
2023-02-23T08:53:25.756Z,101125.81
2023-02-23T08:55:57.866Z,101130.81
2023-02-23T08:58:24.676Z,101131.59
2023-02-23T09:00:51.388Z,101124.91
2023-02-23T09:03:18.147Z,101128.16
2023-02-23T09:05:45.085Z,101126.28
2023-02-23T09:08:14.384Z,101128.00
2023-02-23T09:10:43.794Z,101132.25
2023-02-23T09:13:12.849Z,101137.28
2023-02-23T09:15:41.118Z,101139.91
2023-02-23T09:18:11.237Z,101137.81
2023-02-23T09:20:42.496Z,101139.44
2023-02-23T09:23:09.138Z,101147.28
2023-02-23T09:25:43.217Z,101146.31
2023-02-23T09:28:16.970Z,101147.13
2023-02-23T09:30:46.926Z,101149.97
2023-02-23T09:33:14.066Z,101147.09
2023-02-23T09:35:41.468Z,101153.19
2023-02-23T09:38:09.116Z,101153.97
2023-02-23T09:40:46.577Z,101153.13
2023-02-23T09:43:45.245Z,101156.59
2023-02-23T09:47:04.466Z,101166.13
2023-02-23T09:49:37.969Z,101167.00
2023-02-23T09:52:06.464Z,101166.34
2023-02-23T09:54:35.598Z,101168.84
2023-02-23T09:57:10.473Z,101169.66
2023-02-23T09:59:37.255Z,101179.28
2023-02-23T10:02:34.564Z,101178.41
2023-02-23T10:05:07.223Z,101177.91
2023-02-23T10:08:18.305Z,101183.78
2023-02-23T10:11:08.249Z,101191.38
2023-02-23T10:14:01.890Z,101185.50
2023-02-23T10:16:40.906Z,101192.34
2023-02-23T10:19:21.906Z,101198.59
2023-02-23T10:21:59.827Z,101195.97
2023-02-23T10:24:41.677Z,101197.69
2023-02-23T10:27:14.498Z,101202.91
2023-02-23T10:29:51.552Z,101203.94
2023-02-23T10:32:42.020Z,101211.81
2023-02-23T10:35:16.133Z,101214.38
2023-02-23T10:37:45.513Z,101217.91
2023-02-23T10:40:24.382Z,101211.78
2023-02-23T10:42:52.963Z,101222.16
2023-02-23T10:45:24.707Z,101208.28
2023-02-23T10:48:00.943Z,101214.94
2023-02-23T10:50:29.270Z,101216.66
2023-02-23T10:53:10.198Z,101213.16
2023-02-23T10:55:37.149Z,101212.38
2023-02-23T10:58:19.272Z,101210.59
2023-02-23T11:00:58.823Z,101206.34
2023-02-23T11:03:42.923Z,101216.06
2023-02-23T11:06:30.579Z,101214.91
2023-02-23T11:08:57.472Z,101214.03
2023-02-23T11:11:29.184Z,101219.09
2023-02-23T11:13:57.608Z,101216.56
2023-02-23T11:16:29.920Z,101219.06
2023-02-23T11:19:03.902Z,101213.09
2023-02-23T11:21:34.806Z,101219.19
2023-02-23T11:24:20.239Z,101224.41
2023-02-23T11:26:51.544Z,101219.16
2023-02-23T11:29:29.963Z,101215.56
2023-02-23T11:31:59.184Z,101222.31
2023-02-23T11:34:33.152Z,101214.44
2023-02-23T11:37:08.340Z,101208.28
2023-02-23T11:39:35.329Z,101199.78
2023-02-23T11:42:15.644Z,101203.19
2023-02-23T11:44:42.871Z,101203.28
2023-02-23T11:47:21.579Z,101206.06
2023-02-23T11:49:50.712Z,101206.84
2023-02-23T11:52:22.877Z,101204.47
2023-02-23T11:55:07.789Z,101206.19
2023-02-23T11:57:36.481Z,101207.19
2023-02-23T12:00:21.647Z,101206.22
2023-02-23T12:02:58.794Z,101202.84
2023-02-23T12:05:33.307Z,101208.94
2023-02-23T12:08:10.757Z,101208.13
2023-02-23T12:10:43.304Z,101203.09
2023-02-23T12:13:14.502Z,101208.59
2023-02-23T12:16:22.991Z,101202.53
2023-02-23T12:18:55.073Z,101207.59
2023-02-23T12:21:30.221Z,101202.59
2023-02-23T12:24:08.937Z,101198.19
2023-02-23T12:27:04.158Z,101194.84
2023-02-23T12:30:08.814Z,101200.78
2023-02-23T12:32:48.121Z,101196.44
2023-02-23T12:35:33.834Z,101205.66
2023-02-23T12:38:17.922Z,101198.72
2023-02-23T12:40:45.761Z,101201.31
2023-02-23T12:43:51.352Z,101211.34
2023-02-23T12:46:35.774Z,101204.47
2023-02-23T12:49:25.659Z,101203.50
2023-02-23T12:52:02.209Z,101201.75
2023-02-23T12:54:30.489Z,101203.59
2023-02-23T12:57:23.740Z,101196.59
2023-02-23T13:00:29.996Z,101203.41
2023-02-23T13:03:22.845Z,101200.94
2023-02-23T13:06:07.014Z,101202.59
2023-02-23T13:09:06.542Z,101203.44
2023-02-23T13:11:51.569Z,101206.22
2023-02-23T13:15:04.339Z,101204.50
2023-02-23T13:17:52.104Z,101206.22
2023-02-23T13:20:38.893Z,101206.19
2023-02-23T13:23:32.284Z,101209.69
2023-02-23T13:26:15.876Z,101212.16
2023-02-23T13:28:45.379Z,101212.06
2023-02-23T13:31:26.988Z,101206.09
2023-02-23T13:33:57.350Z,101210.28
2023-02-23T13:36:28.294Z,101203.97
2023-02-23T13:39:25.942Z,101204.06
2023-02-23T13:42:10.534Z,101207.78
2023-02-23T13:45:31.487Z,101204.94
2023-02-23T13:48:24.477Z,101208.59
2023-02-23T13:51:15.682Z,101207.66
2023-02-23T13:54:08.203Z,101211.91
2023-02-23T13:56:44.784Z,101204.44
2023-02-23T13:59:40.065Z,101211.34
2023-02-23T14:02:35.365Z,101215.59
2023-02-23T14:05:24.925Z,101211.34
2023-02-23T14:08:05.188Z,101214.78
2023-02-23T14:10:43.942Z,101208.03
2023-02-23T14:13:13.661Z,101213.22
2023-02-23T14:16:08.517Z,101219.91
2023-02-23T14:18:35.440Z,101220.78
2023-02-23T14:21:46.699Z,101218.00
2023-02-23T14:24:17.744Z,101217.13
2023-02-23T14:27:14.601Z,101218.97
2023-02-23T14:30:05.735Z,101220.66
2023-02-23T14:32:40.035Z,101222.44
2023-02-23T14:35:32.444Z,101216.47
2023-02-23T14:38:12.206Z,101213.94
2023-02-23T14:40:42.380Z,101217.47
2023-02-23T14:43:39.305Z,101224.41
2023-02-23T14:46:21.659Z,101220.06
2023-02-23T14:49:11.808Z,101212.31
2023-02-23T14:51:51.721Z,101212.38
2023-02-23T14:54:27.559Z,101210.63
2023-02-23T14:56:58.321Z,101212.44
2023-02-23T14:59:39.207Z,101212.38
2023-02-23T15:02:24.566Z,101215.00
2023-02-23T15:04:51.896Z,101223.63
2023-02-23T15:07:40.321Z,101225.38
2023-02-23T15:10:43.467Z,101231.56
2023-02-23T15:13:29.812Z,101229.88
2023-02-23T15:15:58.905Z,101223.81
2023-02-23T15:18:34.715Z,101237.63
2023-02-23T15:21:10.144Z,101236.81
2023-02-23T15:23:37.855Z,101234.28
2023-02-23T15:26:31.845Z,101235.03
2023-02-23T15:29:10.839Z,101232.53
2023-02-23T15:31:40.808Z,101230.75
2023-02-23T15:34:11.770Z,101228.13
2023-02-23T15:36:41.536Z,101231.56
2023-02-23T15:39:17.739Z,101229.88
2023-02-23T15:41:48.705Z,101230.66
2023-02-23T15:44:27.484Z,101234.06
2023-02-23T15:47:03.682Z,101234.03
2023-02-23T15:49:38.307Z,101235.81
2023-02-23T15:52:25.697Z,101231.50
2023-02-23T15:54:59.960Z,101228.94
2023-02-23T15:57:34.203Z,101236.66
2023-02-23T16:00:10.664Z,101221.06
2023-02-23T16:02:37.792Z,101230.44
2023-02-23T16:05:46.500Z,101232.38
2023-02-23T16:08:25.309Z,101221.16
2023-02-23T16:11:01.040Z,101224.56
2023-02-23T16:13:28.715Z,101216.81
2023-02-23T16:15:56.543Z,101219.38
2023-02-23T16:18:36.343Z,101227.06
2023-02-23T16:21:05.821Z,101221.88
2023-02-23T16:23:37.158Z,101225.28
2023-02-23T16:26:08.530Z,101223.63
2023-02-23T16:28:43.781Z,101227.00
2023-02-23T16:31:13.366Z,101228.78
2023-02-23T16:33:44.268Z,101220.25
2023-02-23T16:36:11.081Z,101227.94
2023-02-23T16:38:40.760Z,101229.66
2023-02-23T16:41:18.756Z,101229.75
2023-02-23T16:43:49.378Z,101228.13
2023-02-23T16:46:18.214Z,101229.78
2023-02-23T16:48:45.709Z,101228.94
2023-02-23T16:51:25.322Z,101225.44
2023-02-23T16:53:53.567Z,101228.06
2023-02-23T16:56:22.276Z,101231.50
2023-02-23T16:59:01.469Z,101222.88
2023-02-23T17:01:28.444Z,101226.31
2023-02-23T17:03:55.367Z,101226.31
2023-02-23T17:06:23.157Z,101227.16
2023-02-23T17:08:57.536Z,101228.00
2023-02-23T17:11:25.597Z,101227.16
2023-02-23T17:13:55.362Z,101227.16
2023-02-23T17:16:22.573Z,101229.69
2023-02-23T17:18:49.717Z,101233.13
2023-02-23T17:21:23.565Z,101234.06
2023-02-23T17:23:52.749Z,101238.28
2023-02-23T17:26:23.294Z,101242.66
2023-02-23T17:28:50.795Z,101252.03
2023-02-23T17:31:20.170Z,101248.63
2023-02-23T17:33:47.979Z,101252.91
2023-02-23T17:36:17.867Z,101245.16
2023-02-23T17:38:44.895Z,101257.38
2023-02-23T17:41:20.177Z,101242.78
2023-02-23T17:43:47.516Z,101254.78
2023-02-23T17:46:14.408Z,101245.28
2023-02-23T17:48:44.749Z,101256.50
2023-02-23T17:51:13.258Z,101265.09
2023-02-23T17:53:40.826Z,101253.88
2023-02-23T17:56:09.025Z,101260.00
2023-02-23T17:58:37.018Z,101265.28
2023-02-23T18:01:06.822Z,101262.56
2023-02-23T18:03:36.389Z,101267.81
2023-02-23T18:06:06.945Z,101262.69
2023-02-23T18:08:34.515Z,101261.84
2023-02-23T18:11:01.880Z,101265.31
2023-02-23T18:13:30.264Z,101265.31
2023-02-23T18:16:09.434Z,101271.53
2023-02-23T18:18:39.388Z,101277.53
2023-02-23T18:21:15.929Z,101274.28
2023-02-23T18:23:43.215Z,101272.50
2023-02-23T18:26:17.136Z,101273.38
2023-02-23T18:28:45.736Z,101274.13
2023-02-23T18:31:26.612Z,101270.75
2023-02-23T18:33:54.178Z,101273.41
2023-02-23T18:36:24.448Z,101277.63
2023-02-23T18:38:51.271Z,101281.19
2023-02-23T18:41:19.226Z,101289.81
2023-02-23T18:43:47.082Z,101287.19
2023-02-23T18:46:17.382Z,101283.72
2023-02-23T18:48:45.009Z,101274.38
2023-02-23T18:51:14.297Z,101283.88
2023-02-23T18:53:42.085Z,101281.25
2023-02-23T18:56:22.771Z,101277.00
2023-02-23T18:58:51.892Z,101285.66
2023-02-23T19:01:24.956Z,101285.69
2023-02-23T19:03:53.829Z,101278.00
2023-02-23T19:06:22.893Z,101280.56
2023-02-23T19:08:56.623Z,101272.91
2023-02-23T19:11:30.975Z,101278.94
2023-02-23T19:14:01.921Z,101285.81
2023-02-23T19:16:31.348Z,101282.38
2023-02-23T19:18:59.908Z,101280.72
2023-02-23T19:21:26.831Z,101276.50
2023-02-23T19:23:57.800Z,101280.66
2023-02-23T19:26:26.644Z,101278.13
2023-02-23T19:28:54.006Z,101276.44
2023-02-23T19:31:23.081Z,101276.50
2023-02-23T19:33:50.727Z,101278.16
2023-02-23T19:36:21.622Z,101278.13
2023-02-23T19:38:49.958Z,101276.34
2023-02-23T19:41:20.154Z,101278.13
2023-02-23T19:43:47.390Z,101272.91
2023-02-23T19:46:17.265Z,101277.97
2023-02-23T19:48:48.689Z,101273.84
2023-02-23T19:51:15.479Z,101272.94
2023-02-23T19:53:42.208Z,101266.84
2023-02-23T19:56:12.891Z,101265.22
2023-02-23T19:58:44.671Z,101270.34
2023-02-23T20:01:16.976Z,101266.88
2023-02-23T20:03:55.066Z,101266.97
2023-02-23T20:06:25.108Z,101267.81
2023-02-23T20:08:55.112Z,101272.09
2023-02-23T20:11:22.713Z,101267.81
2023-02-23T20:13:50.894Z,101268.66
2023-02-23T20:16:18.183Z,101279.91
2023-02-23T20:18:45.440Z,101274.78
2023-02-23T20:21:15.155Z,101283.44
2023-02-23T20:23:44.568Z,101281.75
2023-02-23T20:26:20.446Z,101287.75
2023-02-23T20:28:47.525Z,101281.78
2023-02-23T20:31:26.507Z,101284.47
2023-02-23T20:33:56.281Z,101282.66
2023-02-23T20:36:24.404Z,101286.94
2023-02-23T20:38:52.040Z,101284.38
2023-02-23T20:41:20.257Z,101277.44
2023-02-23T20:43:47.418Z,101275.69
2023-02-23T20:46:17.130Z,101279.06
2023-02-23T20:48:44.110Z,101277.31
2023-02-23T20:51:14.819Z,101279.91
2023-02-23T20:53:46.588Z,101285.91
2023-02-23T20:56:17.111Z,101279.91
2023-02-23T20:58:44.672Z,101288.53
2023-02-23T21:01:26.427Z,101285.97
2023-02-23T21:03:56.777Z,101288.50
2023-02-23T21:06:25.552Z,101283.38
2023-02-23T21:08:55.914Z,101279.03
2023-02-23T21:11:25.469Z,101278.19
2023-02-23T21:13:52.744Z,101279.84
2023-02-23T21:16:23.800Z,101282.38
2023-02-23T21:18:56.925Z,101277.19
2023-02-23T21:21:23.889Z,101272.88
2023-02-23T21:23:51.274Z,101276.41
2023-02-23T21:26:21.536Z,101263.53
2023-02-23T21:28:49.170Z,101265.13
2023-02-23T21:31:16.056Z,101262.56
2023-02-23T21:33:44.061Z,101268.75
2023-02-23T21:36:12.711Z,101270.63
2023-02-23T21:38:44.631Z,101269.97
2023-02-23T21:41:13.683Z,101271.72
2023-02-23T21:43:42.945Z,101269.97
2023-02-23T21:46:16.737Z,101276.19
2023-02-23T21:48:44.267Z,101271.03
2023-02-23T21:51:14.686Z,101267.63
2023-02-23T21:53:42.680Z,101268.50
2023-02-23T21:56:13.331Z,101266.00
2023-02-23T21:58:45.325Z,101265.09
2023-02-23T22:01:24.881Z,101270.47
2023-02-23T22:03:54.765Z,101259.25
2023-02-23T22:06:25.477Z,101265.41
2023-02-23T22:08:52.535Z,101265.44
2023-02-23T22:11:26.839Z,101261.31
2023-02-23T22:14:00.481Z,101254.41
2023-02-23T22:16:35.840Z,101256.06
2023-02-23T22:19:04.632Z,101257.00
2023-02-23T22:21:35.856Z,101247.41
2023-02-23T22:24:06.355Z,101251.66
2023-02-23T22:26:38.291Z,101256.00
2023-02-23T22:29:07.150Z,101258.75
2023-02-23T22:31:34.144Z,101253.56
2023-02-23T22:34:01.076Z,101256.97
2023-02-23T22:36:28.071Z,101257.84
2023-02-23T22:38:58.298Z,101252.63
2023-02-23T22:41:29.328Z,101255.25
2023-02-23T22:43:59.062Z,101251.88
2023-02-23T22:46:26.332Z,101249.25
2023-02-23T22:48:53.511Z,101249.31
2023-02-23T22:51:21.171Z,101242.47
2023-02-23T22:53:49.813Z,101239.88
2023-02-23T22:56:16.862Z,101242.47
2023-02-23T22:58:43.844Z,101241.66
2023-02-23T23:01:12.061Z,101241.66
2023-02-23T23:03:45.930Z,101239.03
2023-02-23T23:06:22.014Z,101240.75
2023-02-23T23:08:51.838Z,101247.59
2023-02-23T23:11:24.641Z,101248.50
2023-02-23T23:14:01.950Z,101245.94
2023-02-23T23:16:33.571Z,101245.94
2023-02-23T23:19:08.061Z,101239.97
2023-02-23T23:21:36.001Z,101243.41
2023-02-23T23:24:05.876Z,101233.97
2023-02-23T23:26:36.123Z,101236.53
2023-02-23T23:29:04.802Z,101238.34
2023-02-23T23:31:34.918Z,101229.72
2023-02-23T23:34:09.460Z,101238.31
2023-02-23T23:36:46.140Z,101240.00
2023-02-23T23:39:16.144Z,101236.53
2023-02-23T23:41:47.937Z,101238.38
2023-02-23T23:44:21.768Z,101239.19
2023-02-23T23:46:52.732Z,101238.25
2023-02-23T23:49:27.076Z,101230.59
2023-02-23T23:51:56.405Z,101228.06
2023-02-23T23:54:27.922Z,101225.59
2023-02-23T23:56:55.048Z,101221.31
2023-02-23T23:59:26.026Z,101212.78
